createdAt,value
2024-04-22T00:00:27.696Z,21.72
2024-04-22T00:01:27.859Z,21.72
2024-04-22T00:02:27.832Z,21.72
2024-04-22T00:03:27.892Z,21.72
2024-04-22T00:04:27.953Z,21.71
2024-04-22T00:05:27.924Z,21.71
2024-04-22T00:06:27.982Z,21.71
2024-04-22T00:07:28.081Z,21.72
2024-04-22T00:08:28.060Z,21.71
2024-04-22T00:09:28.185Z,21.72
2024-04-22T00:10:28.196Z,21.71
2024-04-22T00:11:28.252Z,21.71
2024-04-22T00:12:28.282Z,21.71
2024-04-22T00:13:28.345Z,21.71
2024-04-22T00:14:28.382Z,21.72
2024-04-22T00:15:28.440Z,21.71
2024-04-22T00:16:28.512Z,21.71
2024-04-22T00:17:28.596Z,21.71
2024-04-22T00:18:28.566Z,21.71
2024-04-22T00:19:28.665Z,21.71
2024-04-22T00:20:28.692Z,21.71
2024-04-22T00:21:28.727Z,21.71
2024-04-22T00:22:28.766Z,21.71
2024-04-22T00:23:28.826Z,21.70
2024-04-22T00:24:28.885Z,21.71
2024-04-22T00:25:28.931Z,21.71
2024-04-22T00:26:28.975Z,21.71
2024-04-22T00:27:29.238Z,21.70
2024-04-22T00:28:29.200Z,21.71
2024-04-22T00:29:29.224Z,21.71
2024-04-22T00:30:29.222Z,21.71
2024-04-22T00:31:29.324Z,21.70
2024-04-22T00:32:29.370Z,21.71
2024-04-22T00:33:29.459Z,21.71
2024-04-22T00:34:29.420Z,21.70
2024-04-22T00:35:29.462Z,21.70
2024-04-22T00:36:29.494Z,21.70
2024-04-22T00:37:29.562Z,21.71
2024-04-22T00:38:29.585Z,21.71
2024-04-22T00:39:29.603Z,21.71
2024-04-22T00:40:29.665Z,21.71
2024-04-22T00:41:29.710Z,21.71
2024-04-22T00:42:29.751Z,21.70
2024-04-22T00:43:29.851Z,21.70
2024-04-22T00:44:29.881Z,21.70
2024-04-22T00:45:29.918Z,21.71
2024-04-22T00:46:29.983Z,21.71
2024-04-22T00:47:30.098Z,21.70
2024-04-22T00:48:30.054Z,21.70
2024-04-22T00:49:30.135Z,21.70
2024-04-22T00:50:30.155Z,21.70
2024-04-22T00:51:30.205Z,21.70
2024-04-22T00:52:30.304Z,21.70
2024-04-22T00:53:30.299Z,21.70
2024-04-22T00:54:30.340Z,21.70
2024-04-22T00:55:30.470Z,21.69
2024-04-22T00:56:30.456Z,21.69
2024-04-22T00:57:30.591Z,21.69
2024-04-22T00:58:30.642Z,21.69
2024-04-22T00:59:30.619Z,21.69
2024-04-22T01:00:30.708Z,21.69
2024-04-22T01:01:30.790Z,21.69
2024-04-22T01:02:30.809Z,21.69
2024-04-22T01:03:30.867Z,21.69
2024-04-22T01:04:31.060Z,21.69
2024-04-22T01:05:30.995Z,21.69
2024-04-22T01:06:31.033Z,21.69
2024-04-22T01:07:31.196Z,21.70
2024-04-22T01:08:31.155Z,21.70
2024-04-22T01:09:31.191Z,21.70
2024-04-22T01:10:31.292Z,21.70
2024-04-22T01:11:31.352Z,21.70
2024-04-22T01:12:31.348Z,21.70
2024-04-22T01:13:31.490Z,21.70
2024-04-22T01:14:31.465Z,21.69
2024-04-22T01:15:31.532Z,21.69
2024-04-22T01:16:31.668Z,21.69
2024-04-22T01:17:31.822Z,21.68
2024-04-22T01:18:31.717Z,21.68
2024-04-22T01:19:31.826Z,21.67
2024-04-22T01:20:31.827Z,21.67
2024-04-22T01:21:31.853Z,21.66
2024-04-22T01:22:31.907Z,21.67
2024-04-22T01:23:31.960Z,21.67
2024-04-22T01:24:32.007Z,21.67
2024-04-22T01:25:32.089Z,21.66
2024-04-22T01:26:32.091Z,21.67
2024-04-22T01:27:32.140Z,21.67
2024-04-22T01:28:32.217Z,21.67
2024-04-22T01:29:32.251Z,21.67
2024-04-22T01:30:32.341Z,21.67
2024-04-22T01:31:32.401Z,21.67
2024-04-22T01:32:32.550Z,21.66
2024-04-22T01:33:32.527Z,21.66
2024-04-22T01:34:32.624Z,21.65
2024-04-22T01:35:32.624Z,21.66
2024-04-22T01:36:32.660Z,21.65
2024-04-22T01:37:32.800Z,21.66
2024-04-22T01:38:32.778Z,21.65
2024-04-22T01:39:32.843Z,21.65
2024-04-22T01:40:32.911Z,21.64
2024-04-22T01:41:32.967Z,21.65
2024-04-22T01:42:33.031Z,21.65
2024-04-22T01:43:33.097Z,21.64
2024-04-22T01:44:33.118Z,21.64
2024-04-22T01:45:33.183Z,21.64
2024-04-22T01:46:33.323Z,21.64
2024-04-22T01:47:33.338Z,21.64
2024-04-22T01:48:33.386Z,21.64
2024-04-22T01:49:33.432Z,21.64
2024-04-22T01:50:33.458Z,21.64
2024-04-22T01:51:33.553Z,21.65
2024-04-22T01:52:33.582Z,21.63
2024-04-22T01:53:33.650Z,21.64
2024-04-22T01:54:33.699Z,21.64
2024-04-22T01:55:33.830Z,21.64
2024-04-22T01:56:33.814Z,21.63
2024-04-22T01:57:33.869Z,21.64
2024-04-22T01:58:33.942Z,21.63
2024-04-22T01:59:33.964Z,21.64
2024-04-22T02:00:34.102Z,21.63
2024-04-22T02:01:34.091Z,21.64
2024-04-22T02:02:34.167Z,21.64
2024-04-22T02:03:34.216Z,21.64
2024-04-22T02:04:34.330Z,21.64
2024-04-22T02:05:34.298Z,21.64
2024-04-22T02:06:34.340Z,21.64
2024-04-22T02:07:34.439Z,21.64
2024-04-22T02:08:34.474Z,21.64
2024-04-22T02:09:34.566Z,21.64
2024-04-22T02:10:34.616Z,21.63
2024-04-22T02:11:34.795Z,21.63
2024-04-22T02:12:34.800Z,21.64
2024-04-22T02:13:34.784Z,21.64
2024-04-22T02:14:34.787Z,21.64
2024-04-22T02:15:34.968Z,21.64
2024-04-22T02:16:34.973Z,21.64
2024-04-22T02:17:35.193Z,21.64
2024-04-22T02:18:35.029Z,21.64
2024-04-22T02:19:35.168Z,21.64
2024-04-22T02:20:35.158Z,21.64
2024-04-22T02:21:35.218Z,21.64
2024-04-22T02:22:35.281Z,21.63
2024-04-22T02:23:35.299Z,21.63
2024-04-22T02:24:35.370Z,21.64
2024-04-22T02:25:35.523Z,21.64
2024-04-22T02:26:35.550Z,21.64
2024-04-22T02:27:35.629Z,21.64
2024-04-22T02:28:35.673Z,21.64
2024-04-22T02:29:35.660Z,21.64
2024-04-22T02:30:35.714Z,21.63
2024-04-22T02:31:35.817Z,21.63
2024-04-22T02:32:35.903Z,21.63
2024-04-22T02:33:35.944Z,21.64
2024-04-22T02:34:36.058Z,21.64
2024-04-22T02:35:36.000Z,21.64
2024-04-22T02:36:36.059Z,21.64
2024-04-22T02:37:36.152Z,21.64
2024-04-22T02:38:36.168Z,21.64
2024-04-22T02:39:36.207Z,21.64
2024-04-22T02:40:36.375Z,21.64
2024-04-22T02:41:36.330Z,21.64
2024-04-22T02:42:36.371Z,21.64
2024-04-22T02:43:36.507Z,21.65
2024-04-22T02:44:36.512Z,21.64
2024-04-22T02:45:36.564Z,21.64
2024-04-22T02:46:36.737Z,21.63
2024-04-22T02:47:36.731Z,21.64
2024-04-22T02:48:36.738Z,21.64
2024-04-22T02:49:36.936Z,21.64
2024-04-22T02:50:36.841Z,21.64
2024-04-22T02:51:36.912Z,21.65
2024-04-22T02:52:37.017Z,21.64
2024-04-22T02:53:37.009Z,21.64
2024-04-22T02:54:37.047Z,21.64
2024-04-22T02:55:37.150Z,21.64
2024-04-22T02:56:37.185Z,21.64
2024-04-22T02:57:37.208Z,21.64
2024-04-22T02:58:38.335Z,21.64
2024-04-22T02:59:37.334Z,21.63
2024-04-22T03:00:37.389Z,21.63
2024-04-22T03:01:37.538Z,21.64
2024-04-22T03:02:37.523Z,21.64
2024-04-22T03:03:37.576Z,21.63
2024-04-22T03:04:37.671Z,21.63
2024-04-22T03:05:37.635Z,21.64
2024-04-22T03:06:37.720Z,21.63
2024-04-22T03:07:37.862Z,21.62
2024-04-22T03:08:37.819Z,21.62
2024-04-22T03:09:37.866Z,21.63
2024-04-22T03:10:37.908Z,21.63
2024-04-22T03:11:38.018Z,21.63
2024-04-22T03:12:38.049Z,21.63
2024-04-22T03:13:38.138Z,21.63
2024-04-22T03:14:38.162Z,21.63
2024-04-22T03:15:38.183Z,21.63
2024-04-22T03:16:38.493Z,21.63
2024-04-22T03:17:38.391Z,21.63
2024-04-22T03:18:38.389Z,21.62
2024-04-22T03:19:38.445Z,21.62
2024-04-22T03:20:38.521Z,21.62
2024-04-22T03:21:38.522Z,21.62
2024-04-22T03:22:38.635Z,21.61
2024-04-22T03:23:38.642Z,21.62
2024-04-22T03:24:38.687Z,21.61
2024-04-22T03:25:38.839Z,21.60
2024-04-22T03:26:38.837Z,21.60
2024-04-22T03:27:38.879Z,21.61
2024-04-22T03:28:38.987Z,21.61
2024-04-22T03:29:39.000Z,21.61
2024-04-22T03:30:39.079Z,21.61
2024-04-22T03:31:39.192Z,21.60
2024-04-22T03:32:39.257Z,21.61
2024-04-22T03:33:39.237Z,21.61
2024-04-22T03:34:39.368Z,21.60
2024-04-22T03:35:39.349Z,21.61
2024-04-22T03:36:39.415Z,21.60
2024-04-22T03:37:39.574Z,21.61
2024-04-22T03:38:39.526Z,21.60
2024-04-22T03:39:39.577Z,21.60
2024-04-22T03:40:39.858Z,21.60
2024-04-22T03:41:39.697Z,21.60
2024-04-22T03:42:39.726Z,21.60
2024-04-22T03:43:39.828Z,21.59
2024-04-22T03:44:39.883Z,21.60
2024-04-22T03:45:39.935Z,21.59
2024-04-22T03:46:40.003Z,21.59
2024-04-22T03:47:40.149Z,21.59
2024-04-22T03:48:40.068Z,21.58
2024-04-22T03:49:40.159Z,21.58
2024-04-22T03:50:40.187Z,21.59
2024-04-22T03:51:40.245Z,21.59
2024-04-22T03:52:40.351Z,21.57
2024-04-22T03:53:40.351Z,21.58
2024-04-22T03:54:40.411Z,21.58
2024-04-22T03:55:40.532Z,21.57
2024-04-22T03:56:40.531Z,21.58
2024-04-22T03:57:40.562Z,21.59
2024-04-22T03:58:40.686Z,21.58
2024-04-22T03:59:40.674Z,21.59
2024-04-22T04:00:40.743Z,21.59
2024-04-22T04:01:40.871Z,21.59
2024-04-22T04:02:40.831Z,21.59
2024-04-22T04:03:40.977Z,21.59
2024-04-22T04:04:41.093Z,21.60
2024-04-22T04:05:41.005Z,21.60
2024-04-22T04:06:41.058Z,21.60
2024-04-22T04:07:41.184Z,21.60
2024-04-22T04:08:41.170Z,21.60
2024-04-22T04:09:41.242Z,21.60
2024-04-22T04:10:41.310Z,21.61
2024-04-22T04:11:41.402Z,21.61
2024-04-22T04:12:41.366Z,21.61
2024-04-22T04:13:41.464Z,21.61
2024-04-22T04:14:41.510Z,21.61
2024-04-22T04:15:41.533Z,21.62
2024-04-22T04:16:41.662Z,21.61
2024-04-22T04:17:41.693Z,21.62
2024-04-22T04:18:41.724Z,21.61
2024-04-22T04:19:41.803Z,21.61
2024-04-22T04:20:41.798Z,21.62
2024-04-22T04:21:41.892Z,21.61
2024-04-22T04:22:42.014Z,21.61
2024-04-22T04:23:41.953Z,21.61
2024-04-22T04:24:42.000Z,21.61
2024-04-22T04:25:42.201Z,21.60
2024-04-22T04:26:42.145Z,21.61
2024-04-22T04:27:42.171Z,21.61
2024-04-22T04:28:42.954Z,21.61
2024-04-22T04:29:42.289Z,21.61
2024-04-22T04:30:42.358Z,21.61
2024-04-22T04:31:42.620Z,21.61
2024-04-22T04:32:49.938Z,21.59
2024-04-22T04:33:49.845Z,21.60
2024-04-22T04:34:49.844Z,21.60
2024-04-22T04:35:49.847Z,21.61
2024-04-22T04:36:49.838Z,21.61
2024-04-22T04:37:49.837Z,21.61
2024-04-22T04:38:49.947Z,21.61
2024-04-22T04:39:49.846Z,21.61
2024-04-22T04:40:49.859Z,21.62
2024-04-22T04:41:49.840Z,21.62
2024-04-22T04:42:49.851Z,21.61
2024-04-22T04:43:49.961Z,21.61
2024-04-22T04:44:49.853Z,21.61
2024-04-22T04:45:49.831Z,21.61
2024-04-22T04:46:49.890Z,21.61
2024-04-22T04:47:49.942Z,21.61
2024-04-22T04:48:51.327Z,21.60
2024-04-22T04:49:49.861Z,21.60
2024-04-22T04:50:49.858Z,21.60
2024-04-22T04:51:49.874Z,21.60
2024-04-22T04:52:49.852Z,21.60
2024-04-22T04:53:49.845Z,21.60
2024-04-22T04:54:52.745Z,21.60
2024-04-22T04:55:49.996Z,21.60
2024-04-22T04:56:49.893Z,21.60
2024-04-22T04:57:49.869Z,21.59
2024-04-22T04:58:49.937Z,21.59
2024-04-22T04:59:49.875Z,21.59
2024-04-22T05:00:49.956Z,21.59
2024-04-22T05:01:50.039Z,21.59
2024-04-22T05:02:49.927Z,21.58
2024-04-22T05:03:49.872Z,21.59
2024-04-22T05:04:49.914Z,21.59
2024-04-22T05:05:49.878Z,21.58
2024-04-22T05:06:49.908Z,21.59
2024-04-22T05:07:49.962Z,21.59
2024-04-22T05:08:49.873Z,21.59
2024-04-22T05:09:49.883Z,21.59
2024-04-22T05:10:49.981Z,21.60
2024-04-22T05:11:49.897Z,21.59
2024-04-22T05:12:50.983Z,21.59
2024-04-22T05:13:49.901Z,21.58
2024-04-22T05:14:50.468Z,21.58
2024-04-22T05:15:49.888Z,21.58
2024-04-22T05:16:49.920Z,21.58
2024-04-22T05:17:50.037Z,21.57
2024-04-22T05:18:50.080Z,21.58
2024-04-22T05:19:50.127Z,21.58
2024-04-22T05:20:50.103Z,21.58
2024-04-22T05:21:50.165Z,21.58
2024-04-22T05:22:50.285Z,21.58
2024-04-22T05:23:50.286Z,21.58
2024-04-22T05:24:50.351Z,21.58
2024-04-22T05:25:50.451Z,21.57
2024-04-22T05:26:50.512Z,21.57
2024-04-22T05:27:50.530Z,21.58
2024-04-22T05:28:50.643Z,21.57
2024-04-22T05:29:50.640Z,21.56
2024-04-22T05:30:50.696Z,21.56
2024-04-22T05:31:50.849Z,21.56
2024-04-22T05:32:50.858Z,21.57
2024-04-22T05:33:50.868Z,21.57
2024-04-22T05:34:50.953Z,21.57
2024-04-22T05:35:50.999Z,21.57
2024-04-22T05:36:51.046Z,21.57
2024-04-22T05:37:51.132Z,21.57
2024-04-22T05:38:51.192Z,21.58
2024-04-22T05:39:51.243Z,21.57
2024-04-22T05:40:51.346Z,21.58
2024-04-22T05:41:51.372Z,21.59
2024-04-22T05:42:51.416Z,21.60
2024-04-22T05:43:51.475Z,21.60
2024-04-22T05:44:51.510Z,21.60
2024-04-22T05:45:51.583Z,21.60
2024-04-22T05:46:51.664Z,21.62
2024-04-22T05:47:51.728Z,21.62
2024-04-22T05:48:51.743Z,21.65
2024-04-22T05:49:51.833Z,21.65
2024-04-22T05:50:51.903Z,21.66
2024-04-22T05:51:51.975Z,21.68
2024-04-22T05:52:52.078Z,21.70
2024-04-22T05:53:51.987Z,21.71
2024-04-22T05:54:52.026Z,21.72
2024-04-22T05:55:52.132Z,21.74
2024-04-22T05:56:52.148Z,21.77
2024-04-22T05:57:52.141Z,21.83
2024-04-22T05:58:52.278Z,21.90
2024-04-22T05:59:52.324Z,21.93
2024-04-22T06:00:52.214Z,21.92
2024-04-22T06:01:52.267Z,21.89
2024-04-22T06:02:52.324Z,21.83
2024-04-22T06:03:52.372Z,21.78
2024-04-22T06:04:52.434Z,21.74
2024-04-22T06:05:52.474Z,21.73
2024-04-22T06:06:52.501Z,21.71
2024-04-22T06:07:52.578Z,21.71
2024-04-22T06:08:52.657Z,21.69
2024-04-22T06:09:52.724Z,21.69
2024-04-22T06:10:52.803Z,21.71
2024-04-22T06:12:02.544Z,21.73
2024-04-22T06:12:53.801Z,21.75
2024-04-22T06:13:52.853Z,21.78
2024-04-22T06:14:52.817Z,21.81
2024-04-22T06:15:52.829Z,21.85
2024-04-22T06:16:53.118Z,21.89
2024-04-22T06:17:52.868Z,21.92
2024-04-22T06:18:52.841Z,21.95
2024-04-22T06:19:52.933Z,21.97
2024-04-22T06:20:52.833Z,21.99
2024-04-22T06:21:52.823Z,22.01
2024-04-22T06:22:52.926Z,22.05
2024-04-22T06:23:52.850Z,22.08
2024-04-22T06:24:52.816Z,22.11
2024-04-22T06:25:52.916Z,22.13
2024-04-22T06:26:52.811Z,22.16
2024-04-22T06:27:52.839Z,22.17
2024-04-22T06:28:52.909Z,22.21
2024-04-22T06:29:52.807Z,22.25
2024-04-22T06:30:52.856Z,22.27
2024-04-22T06:31:52.969Z,22.30
2024-04-22T06:32:52.954Z,22.34
2024-04-22T06:33:53.113Z,22.38
2024-04-22T06:34:53.021Z,22.41
2024-04-22T06:35:53.041Z,22.45
2024-04-22T06:36:53.070Z,22.50
2024-04-22T06:37:53.213Z,22.54
2024-04-22T06:38:53.241Z,22.57
2024-04-22T06:39:53.275Z,22.62
2024-04-22T06:40:53.907Z,22.64
2024-04-22T06:41:53.419Z,22.67
2024-04-22T06:42:53.511Z,22.71
2024-04-22T06:43:53.562Z,22.74
2024-04-22T06:44:53.845Z,22.75
2024-04-22T06:45:53.564Z,22.79
2024-04-22T06:46:53.675Z,22.82
2024-04-22T06:47:53.737Z,22.83
2024-04-22T06:48:53.677Z,22.84
2024-04-22T06:49:53.724Z,22.85
2024-04-22T06:50:53.751Z,22.84
2024-04-22T06:51:53.793Z,22.84
2024-04-22T06:52:53.869Z,22.82
2024-04-22T06:53:53.839Z,22.80
2024-04-22T06:54:53.896Z,22.77
2024-04-22T06:55:53.966Z,22.74
2024-04-22T06:56:53.977Z,22.71
2024-04-22T06:57:54.061Z,22.66
2024-04-22T06:58:54.108Z,22.63
2024-04-22T06:59:54.159Z,22.60
2024-04-22T07:00:54.241Z,22.57
2024-04-22T07:01:54.336Z,22.53
2024-04-22T07:02:54.441Z,22.51
2024-04-22T07:03:54.537Z,22.48
2024-04-22T07:04:54.541Z,22.47
2024-04-22T07:05:54.592Z,22.45
2024-04-22T07:06:54.666Z,22.43
2024-04-22T07:07:54.783Z,22.42
2024-04-22T07:08:54.781Z,22.40
2024-04-22T07:09:54.827Z,22.39
2024-04-22T07:10:54.816Z,22.38
2024-04-22T07:11:54.843Z,22.36
2024-04-22T07:12:54.857Z,22.36
2024-04-22T07:13:54.841Z,22.35
2024-04-22T07:14:54.857Z,22.34
2024-04-22T07:15:54.862Z,22.35
2024-04-22T07:16:55.043Z,22.34
2024-04-22T07:17:54.960Z,22.34
2024-04-22T07:18:54.859Z,22.34
2024-04-22T07:19:54.917Z,22.33
2024-04-22T07:20:54.898Z,22.33
2024-04-22T07:21:54.902Z,22.32
2024-04-22T07:22:54.907Z,22.32
2024-04-22T07:23:54.911Z,22.33
2024-04-22T07:25:01.886Z,22.31
2024-04-22T07:25:55.910Z,22.32
2024-04-22T07:26:54.913Z,22.32
2024-04-22T07:27:55.634Z,22.32
2024-04-22T07:28:54.971Z,22.32
2024-04-22T07:29:54.936Z,22.32
2024-04-22T07:30:54.924Z,22.32
2024-04-22T07:31:54.954Z,22.32
2024-04-22T07:32:55.130Z,22.33
2024-04-22T07:33:54.910Z,22.32
2024-04-22T07:34:54.907Z,22.32
2024-04-22T07:35:54.924Z,22.33
2024-04-22T07:36:54.932Z,22.32
2024-04-22T07:37:54.983Z,22.32
2024-04-22T07:38:54.932Z,22.33
2024-04-22T07:39:54.948Z,22.32
2024-04-22T07:40:55.013Z,22.33
2024-04-22T07:41:55.055Z,22.33
2024-04-22T07:42:54.962Z,22.33
2024-04-22T07:43:54.929Z,22.33
2024-04-22T07:44:54.943Z,22.34
2024-04-22T07:45:54.968Z,22.36
2024-04-22T07:46:55.119Z,22.37
2024-04-22T07:47:55.012Z,22.38
2024-04-22T07:48:54.971Z,22.39
2024-04-22T07:49:55.028Z,22.40
2024-04-22T07:50:54.962Z,22.41
2024-04-22T07:51:54.956Z,22.42
2024-04-22T07:52:54.978Z,22.43
2024-04-22T07:53:54.971Z,22.44
2024-04-22T07:54:54.998Z,22.44
2024-04-22T07:55:54.995Z,22.45
2024-04-22T07:56:54.956Z,22.45
2024-04-22T07:57:55.007Z,22.46
2024-04-22T07:58:54.971Z,22.46
2024-04-22T07:59:54.984Z,22.46
2024-04-22T08:00:55.001Z,22.46
2024-04-22T08:01:55.000Z,22.48
2024-04-22T08:02:55.062Z,22.48
2024-04-22T08:03:55.016Z,22.48
2024-04-22T08:04:55.076Z,22.49
2024-04-22T08:05:54.998Z,22.50
2024-04-22T08:06:54.987Z,22.51
2024-04-22T08:07:54.987Z,22.53
2024-04-22T08:08:54.993Z,22.52
2024-04-22T08:09:54.977Z,22.54
2024-04-22T08:10:55.030Z,22.54
2024-04-22T08:11:54.960Z,22.54
2024-04-22T08:12:54.999Z,22.55
2024-04-22T08:13:55.044Z,22.56
2024-04-22T08:14:54.971Z,22.57
2024-04-22T08:15:55.019Z,22.58
2024-04-22T08:16:55.177Z,22.58
2024-04-22T08:17:55.318Z,22.58
2024-04-22T08:18:55.118Z,22.58
2024-04-22T08:19:57.121Z,22.58
2024-04-22T08:20:55.160Z,22.58
2024-04-22T08:21:55.116Z,22.59
2024-04-22T08:22:55.172Z,22.58
2024-04-22T08:23:55.139Z,22.59
2024-04-22T08:24:55.109Z,22.59
2024-04-22T08:25:55.198Z,22.60
2024-04-22T08:26:55.122Z,22.60
2024-04-22T08:27:55.153Z,22.60
2024-04-22T08:28:57.929Z,22.61
2024-04-22T08:29:55.167Z,22.61
2024-04-22T08:30:55.144Z,22.61
2024-04-22T08:31:55.198Z,22.62
2024-04-22T08:32:55.188Z,22.62
2024-04-22T08:33:55.211Z,22.63
2024-04-22T08:34:55.194Z,22.64
2024-04-22T08:35:55.181Z,22.64
2024-04-22T08:36:55.166Z,22.64
2024-04-22T08:37:55.174Z,22.65
2024-04-22T08:38:55.280Z,22.65
2024-04-22T08:39:55.177Z,22.67
2024-04-22T08:40:55.241Z,22.68
2024-04-22T08:41:55.187Z,22.68
2024-04-22T08:42:55.214Z,22.70
2024-04-22T08:43:55.198Z,22.68
2024-04-22T08:44:55.187Z,22.69
2024-04-22T08:45:55.242Z,22.69
2024-04-22T08:46:55.215Z,22.69
2024-04-22T08:47:55.267Z,22.70
2024-04-22T08:48:55.235Z,22.71
2024-04-22T08:49:55.346Z,22.71
2024-04-22T08:50:55.381Z,22.72
2024-04-22T08:51:55.429Z,22.73
2024-04-22T08:52:56.807Z,22.73
2024-04-22T08:53:55.590Z,22.74
2024-04-22T08:54:55.683Z,22.72
2024-04-22T08:55:55.774Z,22.72
2024-04-22T08:56:55.799Z,22.72
2024-04-22T08:57:55.855Z,22.70
2024-04-22T08:58:55.962Z,22.68
2024-04-22T08:59:55.998Z,22.66
2024-04-22T09:00:56.077Z,22.64
2024-04-22T09:01:56.143Z,22.62
2024-04-22T09:02:56.237Z,22.60
2024-04-22T09:03:56.244Z,22.58
2024-04-22T09:04:56.315Z,22.57
2024-04-22T09:05:56.408Z,22.57
2024-04-22T09:06:56.318Z,22.55
2024-04-22T09:07:56.317Z,22.54
2024-04-22T09:08:56.219Z,22.51
2024-04-22T09:10:14.713Z,22.50
2024-04-22T09:12:08.511Z,22.48
2024-04-22T09:12:57.369Z,22.47
2024-04-22T09:13:56.451Z,22.46
2024-04-22T09:14:56.349Z,22.47
2024-04-22T09:15:56.398Z,22.46
2024-04-22T09:16:56.344Z,22.46
2024-04-22T09:17:56.350Z,22.45
2024-04-22T09:18:56.399Z,22.46
2024-04-22T09:19:56.554Z,22.45
2024-04-22T09:20:56.298Z,22.46
2024-04-22T09:21:56.275Z,22.45
2024-04-22T09:22:56.314Z,22.45
2024-04-22T09:23:56.299Z,22.45
2024-04-22T09:24:56.354Z,22.45
2024-04-22T09:25:56.315Z,22.44
2024-04-22T09:26:56.306Z,22.44
2024-04-22T09:27:56.346Z,22.43
2024-04-22T09:28:56.335Z,22.44
2024-04-22T09:29:56.350Z,22.43
2024-04-22T09:30:56.281Z,22.43
2024-04-22T09:31:56.402Z,22.43
2024-04-22T09:32:56.496Z,22.43
2024-04-22T09:33:56.431Z,22.44
2024-04-22T09:34:56.428Z,22.44
2024-04-22T09:35:56.399Z,22.44
2024-04-22T09:36:56.316Z,22.44
2024-04-22T09:37:56.455Z,22.44
2024-04-22T09:38:56.358Z,22.43
2024-04-22T09:39:56.481Z,22.46
2024-04-22T09:40:56.366Z,22.51
2024-04-22T09:41:56.325Z,22.56
2024-04-22T09:42:56.524Z,22.61
2024-04-22T09:44:00.863Z,22.68
2024-04-22T09:44:57.438Z,22.73
2024-04-22T09:45:56.339Z,22.78
2024-04-22T09:46:56.313Z,22.82
2024-04-22T09:47:56.649Z,22.86
2024-04-22T09:48:56.439Z,22.89
2024-04-22T09:49:56.620Z,22.93
2024-04-22T09:50:56.406Z,22.95
2024-04-22T09:51:56.325Z,22.97
2024-04-22T09:52:56.364Z,22.99
2024-04-22T09:53:56.331Z,23.00
2024-04-22T09:54:56.485Z,23.01
2024-04-22T09:55:56.467Z,23.03
2024-04-22T09:56:56.460Z,23.04
2024-04-22T09:57:56.413Z,23.06
2024-04-22T09:58:56.395Z,23.07
2024-04-22T09:59:56.357Z,23.08
2024-04-22T10:00:56.519Z,23.09
2024-04-22T10:01:58.345Z,23.11
2024-04-22T10:02:56.646Z,23.12
2024-04-22T10:03:56.567Z,23.13
2024-04-22T10:04:56.882Z,23.15
2024-04-22T10:05:57.833Z,23.16
2024-04-22T10:06:56.443Z,23.18
2024-04-22T10:07:56.587Z,23.19
2024-04-22T10:08:56.372Z,23.20
2024-04-22T10:09:56.409Z,23.21
2024-04-22T10:10:56.511Z,23.22
2024-04-22T10:11:56.504Z,23.23
2024-04-22T10:12:56.430Z,23.23
2024-04-22T10:13:56.398Z,23.25
2024-04-22T10:14:56.389Z,23.26
2024-04-22T10:15:56.386Z,23.28
2024-04-22T10:16:56.426Z,23.29
2024-04-22T10:17:56.590Z,23.29
2024-04-22T10:18:56.473Z,23.30
2024-04-22T10:19:56.429Z,23.31
2024-04-22T10:20:56.472Z,23.32
2024-04-22T10:21:56.399Z,23.31
2024-04-22T10:22:56.402Z,23.31
2024-04-22T10:23:56.406Z,23.31
2024-04-22T10:24:56.440Z,23.31
2024-04-22T10:25:56.421Z,23.31
2024-04-22T10:27:04.903Z,23.32
2024-04-22T10:27:57.445Z,23.33
2024-04-22T10:28:56.473Z,23.34
2024-04-22T10:29:56.403Z,23.36
2024-04-22T10:30:56.468Z,23.37
2024-04-22T10:31:56.465Z,23.38
2024-04-22T10:32:56.421Z,23.40
2024-04-22T10:33:56.562Z,23.41
2024-04-22T10:34:56.532Z,23.44
2024-04-22T10:35:56.457Z,23.45
2024-04-22T10:36:58.602Z,23.47
2024-04-22T10:37:56.610Z,23.49
2024-04-22T10:38:56.676Z,23.51
2024-04-22T10:39:56.688Z,23.52
2024-04-22T10:40:56.791Z,23.54
2024-04-22T10:41:56.857Z,23.55
2024-04-22T10:42:56.881Z,23.54
2024-04-22T10:43:56.976Z,23.55
2024-04-22T10:44:57.160Z,23.55
2024-04-22T10:45:57.060Z,23.57
2024-04-22T10:46:57.936Z,23.58
2024-04-22T10:48:07.816Z,23.58
2024-04-22T10:48:58.293Z,23.59
2024-04-22T10:49:57.227Z,23.60
2024-04-22T10:50:57.186Z,23.60
2024-04-22T10:51:57.201Z,23.61
2024-04-22T10:52:57.288Z,23.63
2024-04-22T10:53:57.268Z,23.64
2024-04-22T10:54:57.224Z,23.66
2024-04-22T10:55:57.237Z,23.67
2024-04-22T10:56:57.257Z,23.68
2024-04-22T10:57:57.352Z,23.69
2024-04-22T10:58:57.398Z,23.70
2024-04-22T10:59:57.452Z,23.72
2024-04-22T11:00:57.595Z,23.73
2024-04-22T11:01:57.739Z,23.74
2024-04-22T11:02:57.944Z,23.76
2024-04-22T11:03:57.690Z,23.77
2024-04-22T11:04:57.759Z,23.79
2024-04-22T11:05:57.805Z,23.82
2024-04-22T11:06:57.862Z,23.83
2024-04-22T11:07:57.914Z,23.83
2024-04-22T11:08:57.976Z,23.84
2024-04-22T11:09:58.003Z,23.84
2024-04-22T11:10:58.115Z,23.87
2024-04-22T11:11:58.206Z,23.87
2024-04-22T11:12:58.197Z,23.88
2024-04-22T11:13:58.267Z,23.88
2024-04-22T11:14:58.357Z,23.89
2024-04-22T11:15:58.383Z,23.89
2024-04-22T11:16:58.532Z,23.90
2024-04-22T11:17:58.501Z,23.89
2024-04-22T11:18:58.556Z,23.90
2024-04-22T11:19:58.653Z,23.90
2024-04-22T11:20:58.648Z,23.90
2024-04-22T11:21:58.734Z,23.90
2024-04-22T11:22:58.800Z,23.92
2024-04-22T11:23:58.822Z,23.91
2024-04-22T11:24:59.765Z,23.92
2024-04-22T11:25:58.977Z,23.92
2024-04-22T11:26:59.004Z,23.94
2024-04-22T11:27:59.076Z,23.94
2024-04-22T11:28:59.095Z,23.95
2024-04-22T11:29:59.162Z,23.95
2024-04-22T11:30:59.244Z,23.94
2024-04-22T11:31:59.281Z,23.94
2024-04-22T11:32:59.419Z,23.92
2024-04-22T11:33:59.406Z,23.92
2024-04-22T11:34:59.484Z,23.90
2024-04-22T11:35:59.501Z,23.88
2024-04-22T11:36:59.568Z,23.85
2024-04-22T11:37:59.655Z,23.82
2024-04-22T11:38:59.667Z,23.81
2024-04-22T11:39:59.732Z,23.78
2024-04-22T11:40:59.856Z,23.76
2024-04-22T11:41:59.837Z,23.72
2024-04-22T11:42:59.883Z,23.70
2024-04-22T11:43:59.935Z,23.67
2024-04-22T11:45:02.130Z,23.64
2024-04-22T11:46:00.024Z,23.61
2024-04-22T11:47:00.134Z,23.59
2024-04-22T11:48:00.135Z,23.57
2024-04-22T11:49:00.032Z,23.54
2024-04-22T11:50:00.048Z,23.53
2024-04-22T11:51:00.024Z,23.51
2024-04-22T11:52:00.053Z,23.49
2024-04-22T11:53:05.630Z,23.47
2024-04-22T11:54:01.052Z,23.45
2024-04-22T11:55:00.059Z,23.44
2024-04-22T11:56:00.086Z,23.43
2024-04-22T11:57:00.052Z,23.42
2024-04-22T11:58:00.149Z,23.40
2024-04-22T11:59:00.126Z,23.39
2024-04-22T12:00:00.128Z,23.38
2024-04-22T12:01:00.111Z,23.37
2024-04-22T12:02:00.209Z,23.36
2024-04-22T12:03:02.057Z,23.35
2024-04-22T12:04:00.333Z,23.34
2024-04-22T12:05:00.513Z,23.33
2024-04-22T12:06:00.432Z,23.33
2024-04-22T12:07:00.381Z,23.32
2024-04-22T12:08:00.435Z,23.31
2024-04-22T12:09:05.076Z,23.31
2024-04-22T12:10:01.367Z,23.29
2024-04-22T12:11:00.415Z,23.29
2024-04-22T12:12:00.355Z,23.29
2024-04-22T12:13:00.406Z,23.27
2024-04-22T12:14:00.343Z,23.28
2024-04-22T12:15:03.593Z,23.27
2024-04-22T12:16:01.344Z,23.26
2024-04-22T12:17:00.474Z,23.25
2024-04-22T12:18:00.410Z,23.25
2024-04-22T12:19:00.369Z,23.24
2024-04-22T12:20:00.352Z,23.24
2024-04-22T12:21:02.681Z,23.22
2024-04-22T12:22:00.360Z,23.22
2024-04-22T12:23:00.392Z,23.22
2024-04-22T12:24:00.385Z,23.21
2024-04-22T12:25:00.411Z,23.21
2024-04-22T12:26:00.452Z,23.21
2024-04-22T12:27:02.344Z,23.21
2024-04-22T12:28:09.746Z,23.19
2024-04-22T12:29:01.432Z,23.18
2024-04-22T12:30:00.412Z,23.18
2024-04-22T12:31:00.389Z,23.17
2024-04-22T12:32:00.379Z,23.19
2024-04-22T12:33:00.462Z,23.18
2024-04-22T12:34:06.908Z,23.17
2024-04-22T12:35:01.476Z,23.16
2024-04-22T12:36:00.432Z,23.15
2024-04-22T12:37:00.470Z,23.13
2024-04-22T12:38:01.473Z,23.12
2024-04-22T12:39:00.465Z,23.10
2024-04-22T12:40:00.486Z,23.10
2024-04-22T12:41:00.518Z,23.09
2024-04-22T12:42:00.398Z,23.08
2024-04-22T12:43:01.288Z,23.07
2024-04-22T12:44:03.822Z,23.06
2024-04-22T12:45:00.412Z,23.06
2024-04-22T12:46:00.404Z,23.06
2024-04-22T12:47:00.521Z,23.05
2024-04-22T12:48:00.516Z,23.04
2024-04-22T12:49:00.416Z,23.03
2024-04-22T12:50:00.492Z,23.03
2024-04-22T12:51:01.529Z,23.02
2024-04-22T12:52:00.436Z,23.02
2024-04-22T12:53:00.506Z,23.01
2024-04-22T12:54:00.468Z,23.00